Accueil
METAR-TAF:

METAR-TAF

Aéroports :

Base aérienne 126 Solenzara

Solenzara, France

latitude: 41-55N, longitude: 009-24E, altitude: 8 m

Observation

Le bulletin a été fait il y a 32 minutes, à 07:30 UTC
Vent 7 kt de nord-est
Température 21°C
Humidité 46%
Pression 1028 hPa
Visibilité 10 km ou plus

METAR: LFKS 270730Z AUTO 05007KT 9999 ////// 21/09 Q1028

Heure: 10:02 (08:02 UTC)

Prévision

Le bulletin a été fait il y a 3 heures et 2 minutes, à 05:00 UTC
Prévision valable du 27 à 05 UTC au 28 à 03 UTC
Vent 5 kt de ouest
Visibilité 10 km ou plus
pas de nuages en-dessous de 1500 mètres et pas de cumulonimbus.
Evoluant progressivement
du 27 à 07 UTC au 27 à 09 UTC
Vent 10 kt de nord-est
Evoluant progressivement
du 27 à 19 UTC au 27 à 21 UTC
Vent 5 kt de ouest

TAF: LFKS 270500Z 2705/2803 27005KT CAVOK BECMG 2707/2709 04010KT BECMG 2719/2721 27005KT

Observations et prévisions météorologiques de plus de 4000 aéroports (messages METAR et TAF).

Les stations disponibles sont représentées par des disques jaunes et rouges sur la carte.

Passer la souris dessus pour voir le nom de la station.

Cliquer dessus pour voir les observations et prévisions météorologiques.

Pour changer de carte: cliquez sur les boutons verts avec une croix noire pour zoomer, sur le bouton vert avec un tiret pour effectuer un zoom arrière, ou sur les flèches vertes pour les cartes adjacentes.


METAR-TAF: